Time;durP1;ratioP1;P1;durP2;ratioP2;P2;SDS_P1;SDS_P2;PMS_P1;PMS_P2;Temp;Humidity;BMP_temperature;BMP_pressure;BME280_temperature;BME280_humidity;BME280_pressure;Samples;Min_cycle;Max_cycle;Signal;HPM_P1;HPM_P2
2021/12/15 00:00:17;;;;;;;15.02;10.60;;;;;;;17.87;51.24;102933.34;5005541;28;20361;-58
2021/12/15 00:02:45;;;;;;;16.35;10.90;;;;;;;17.87;51.31;102933.34;5000553;28;20045;-59
2021/12/15 00:05:20;;;;;;;17.75;10.90;;;;;;;17.87;51.51;102930.69;5010330;28;20053;-59
2021/12/15 00:07:51;;;;;;;14.13;9.70;;;;;;;17.86;51.25;102930.78;5005564;28;20050;-58
2021/12/15 00:10:19;;;;;;;16.30;11.10;;;;;;;17.86;51.44;102930.78;5005175;28;20491;-58
2021/12/15 00:12:47;;;;;;;16.88;11.77;;;;;;;17.86;50.96;102933.47;5005563;28;20057;-59
2021/12/15 00:15:14;;;;;;;15.05;10.75;;;;;;;17.85;51.28;102931.72;5007065;28;20068;-58
2021/12/15 00:17:41;;;;;;;17.60;10.95;;;;;;;17.84;51.34;102930.00;5004257;28;20061;-58
2021/12/15 00:20:12;;;;;;;15.43;10.45;;;;;;;17.82;51.19;102934.63;5006150;28;20053;-58
2021/12/15 00:22:39;;;;;;;19.35;11.45;;;;;;;17.83;51.13;102936.34;5003153;28;20052;-58
2021/12/15 00:25:08;;;;;;;18.65;10.82;;;;;;;17.81;51.03;102931.09;5009249;28;20220;-58
2021/12/15 00:27:35;;;;;;;15.45;10.32;;;;;;;17.81;51.24;102924.84;5011378;28;20125;-58
2021/12/15 00:30:04;;;;;;;15.70;10.65;;;;;;;17.81;51.32;102932.88;5004775;28;20049;-58
2021/12/15 00:32:31;;;;;;;19.17;11.93;;;;;;;17.81;51.24;102927.53;5006018;28;20057;-59
2021/12/15 00:34:58;;;;;;;14.48;10.93;;;;;;;17.80;51.25;102931.19;5006813;28;20515;-58
2021/12/15 00:37:24;;;;;;;17.10;11.48;;;;;;;17.80;51.55;102933.84;5004265;28;20072;-58
2021/12/15 00:39:51;;;;;;;14.98;10.82;;;;;;;17.80;51.27;102933.84;5008268;28;20046;-58
2021/12/15 00:42:17;;;;;;;17.48;10.75;;;;;;;17.79;51.39;102935.69;5003870;28;20076;-58
2021/12/15 00:44:44;;;;;;;16.98;11.20;;;;;;;17.78;51.41;102927.75;5009090;28;20433;-58
2021/12/15 00:47:11;;;;;;;17.77;11.63;;;;;;;17.77;51.27;102932.25;5004098;28;20050;-58
2021/12/15 00:49:39;;;;;;;15.82;10.30;;;;;;;17.77;51.44;102934.94;5003537;28;20076;-58
2021/12/15 00:52:06;;;;;;;16.25;10.35;;;;;;;17.75;51.28;102929.66;5007915;28;20050;-58
2021/12/15 00:54:34;;;;;;;16.92;11.70;;;;;;;17.76;51.35;102934.06;5007830;28;20129;-58
2021/12/15 00:57:02;;;;;;;16.38;11.45;;;;;;;17.74;51.04;102925.25;5008599;28;20141;-58
2021/12/15 00:59:30;;;;;;;14.02;10.98;;;;;;;17.74;51.34;102933.31;5008882;28;20052;-58
2021/12/15 01:01:59;;;;;;;17.13;11.00;;;;;;;17.74;51.50;102932.41;5005755;28;20104;-58
2021/12/15 01:04:26;;;;;;;16.20;10.73;;;;;;;17.74;51.49;102930.63;5006772;28;20053;-58
2021/12/15 01:06:57;;;;;;;16.60;11.18;;;;;;;17.73;51.30;102923.53;5005338;28;20050;-58
2021/12/15 01:09:31;;;;;;;15.40;10.60;;;;;;;17.72;51.55;102932.50;5005814;28;20430;-58
2021/12/15 01:20:02;;;;;;;13.95;10.75;;;;;;;17.71;51.40;102930.78;5010174;28;20179;-59
2021/12/15 01:22:31;;;;;;;15.98;10.82;;;;;;;17.71;51.39;102929.94;5004942;28;20041;-59
2021/12/15 01:25:07;;;;;;;15.90;10.55;;;;;;;17.70;51.39;102929.06;5004781;28;20077;-58
2021/12/15 01:27:34;;;;;;;18.17;11.32;;;;;;;17.70;51.26;102934.44;5010201;28;20046;-59
2021/12/15 01:30:00;;;;;;;18.95;10.90;;;;;;;17.70;51.49;102930.91;5007388;28;20545;-58
2021/12/15 01:32:27;;;;;;;16.13;10.57;;;;;;;17.70;51.23;102933.59;5007933;28;20341;-59
2021/12/15 01:34:54;;;;;;;15.15;10.65;;;;;;;17.68;51.51;102928.31;5008412;28;20042;-58
2021/12/15 01:37:20;;;;;;;15.27;10.30;;;;;;;17.68;51.46;102927.44;5005180;28;20177;-58
2021/12/15 01:39:52;;;;;;;14.35;10.73;;;;;;;17.67;51.47;102934.63;5005118;28;20060;-59
2021/12/15 01:42:19;;;;;;;15.45;10.48;;;;;;;17.66;51.20;102932.91;5010610;28;20060;-59
2021/12/15 01:47:31;;;;;;;13.70;10.27;;;;;;;17.67;51.42;102933.78;5012894;28;20057;-59
2021/12/15 01:49:58;;;;;;;14.98;11.15;;;;;;;17.65;51.73;102939.25;5010802;28;20054;-58
2021/12/15 01:52:29;;;;;;;16.92;11.15;;;;;;;17.66;51.52;102945.47;5012317;28;20120;-58
2021/12/15 01:55:00;;;;;;;13.43;9.98;;;;;;;17.64;51.43;102933.97;5008826;28;20050;-59
2021/12/15 01:57:29;;;;;;;16.35;11.07;;;;;;;17.65;51.60;102941.06;5011320;28;20045;-58
2021/12/15 01:59:58;;;;;;;16.17;10.90;;;;;;;17.65;51.67;102947.31;5012905;28;20426;-58
2021/12/15 02:02:25;;;;;;;16.10;11.25;;;;;;;17.64;51.43;102942.88;5013223;28;20053;-59
2021/12/15 02:04:53;;;;;;;15.05;10.82;;;;;;;17.64;51.58;102945.56;5008686;28;20552;-58
2021/12/15 02:07:22;;;;;;;18.50;10.88;;;;;;;17.64;51.48;102950.91;5013712;28;20054;-58
2021/12/15 02:12:24;;;;;;;15.85;10.43;;;;;;;17.63;51.63;102959.06;5008795;28;20076;-59
2021/12/15 02:14:51;;;;;;;15.20;10.40;;;;;;;17.63;51.44;102954.56;5010685;28;20049;-59
2021/12/15 02:17:18;;;;;;;14.48;10.50;;;;;;;17.63;51.85;102953.72;5006856;28;20353;-59
2021/12/15 02:19:45;;;;;;;13.40;9.75;;;;;;;17.63;51.47;102951.03;5010532;28;20050;-58
2021/12/15 02:22:11;;;;;;;14.18;10.20;;;;;;;17.62;51.54;102952.84;5004591;28;20043;-58
2021/12/15 02:24:40;;;;;;;15.00;10.63;;;;;;;17.62;51.48;102954.69;5007744;28;20055;-58
2021/12/15 02:27:11;;;;;;;14.45;10.48;;;;;;;17.62;51.61;102960.03;5013194;28;20049;-59
2021/12/15 02:29:41;;;;;;;13.55;9.90;;;;;;;17.61;51.56;102960.97;5012980;28;20151;-59
2021/12/15 02:32:19;;;;;;;15.05;10.75;;;;;;;17.59;51.70;102953.03;5011791;28;20046;-59
2021/12/15 02:37:41;;;;;;;15.02;10.68;;;;;;;17.60;51.45;102956.59;4986392;28;20332;-59
2021/12/15 02:40:12;;;;;;;16.77;10.48;;;;;;;17.58;51.10;102954.00;5011377;28;20063;-59
2021/12/15 02:42:45;;;;;;;15.38;10.40;;;;;;;17.58;51.19;102953.16;5007347;28;20063;-58
2021/12/15 02:45:16;;;;;;;14.93;10.80;;;;;;;17.57;51.68;102954.97;5009592;28;20431;-59
2021/12/15 02:47:43;;;;;;;15.25;10.63;;;;;;;17.57;51.72;102954.97;5009431;28;20141;-59
2021/12/15 02:50:15;;;;;;;15.30;11.13;;;;;;;17.56;51.59;102963.97;5004399;28;20346;-59
2021/12/15 02:52:42;;;;;;;15.40;11.15;;;;;;;17.55;51.04;102956.03;5008958;28;20053;-59
2021/12/15 02:55:10;;;;;;;16.90;11.52;;;;;;;17.55;51.24;102956.03;5004699;28;20050;-59
2021/12/15 02:57:37;;;;;;;18.60;11.88;;;;;;;17.54;51.09;102959.69;5004716;28;20456;-58
2021/12/15 03:00:18;;;;;;;16.73;12.00;;;;;;;17.53;51.45;102953.47;5006509;28;20449;-59
2021/12/15 03:05:34;;;;;;;17.25;11.77;;;;;;;17.54;51.59;102967.72;5009182;28;20058;-58
2021/12/15 03:08:14;;;;;;;18.58;11.90;;;;;;;17.52;51.41;102962.44;5011429;28;20460;-59
2021/12/15 03:16:16;;;;;;;15.43;10.63;;;;;;;17.51;51.70;102969.63;5008834;28;20358;-59
2021/12/15 03:18:44;;;;;;;14.98;10.82;;;;;;;17.50;51.99;102967.91;5007229;28;20069;-59
2021/12/15 03:21:17;;;;;;;15.52;10.82;;;;;;;17.49;51.47;102968.88;5004062;28;20137;-59
2021/12/15 03:23:53;;;;;;;14.63;10.30;;;;;;;17.49;51.68;102960.84;5008294;28;20050;-58
2021/12/15 03:26:31;;;;;;;14.88;11.10;;;;;;;17.50;51.30;102970.59;5008442;28;20045;-59
2021/12/15 03:37:23;;;;;;;17.73;11.38;;;;;;;17.48;51.51;102961.78;5007332;28;20125;-59
2021/12/15 03:40:04;;;;;;;16.45;11.68;;;;;;;17.47;51.57;102962.75;5007705;28;20049;-58
2021/12/15 03:42:47;;;;;;;15.93;11.52;;;;;;;17.47;51.46;102964.56;5007389;28;20048;-59
2021/12/15 03:45:20;;;;;;;15.13;10.60;;;;;;;17.46;51.61;102961.03;5006002;28;20053;-59
2021/12/15 03:47:49;;;;;;;13.60;10.17;;;;;;;17.47;51.70;102959.19;5006428;28;20049;-58
2021/12/15 03:50:20;;;;;;;15.95;11.05;;;;;;;17.47;51.54;102976.13;5005854;28;20052;-59
2021/12/15 03:52:50;;;;;;;15.00;11.02;;;;;;;17.47;51.53;102975.28;5005717;28;20038;-59
2021/12/15 03:55:20;;;;;;;17.25;11.07;;;;;;;17.47;51.49;102967.25;5006795;28;20058;-58
2021/12/15 03:57:51;;;;;;;16.17;11.40;;;;;;;17.46;51.49;102974.44;5007218;28;20049;-58
2021/12/15 04:00:18;;;;;;;16.33;11.02;;;;;;;17.46;51.37;102968.22;5003013;28;20459;-58
2021/12/15 04:02:46;;;;;;;16.23;11.45;;;;;;;17.47;51.61;102969.91;5004151;28;20150;-58
2021/12/15 04:05:15;;;;;;;16.58;11.65;;;;;;;17.45;51.88;102972.72;5002663;28;20050;-58
2021/12/15 04:07:42;;;;;;;15.52;11.02;;;;;;;17.45;51.92;102966.50;5004712;28;20060;-58
2021/12/15 04:10:13;;;;;;;14.80;9.98;;;;;;;17.45;51.56;102977.22;5006565;28;20084;-58
2021/12/15 04:12:42;;;;;;;14.23;10.05;;;;;;;17.46;51.86;102977.09;5004287;28;20054;-58
2021/12/15 04:15:29;;;;;;;14.95;10.27;;;;;;;17.45;51.72;102978.06;5011340;28;20053;-58
2021/12/15 04:18:01;;;;;;;14.90;11.02;;;;;;;17.45;51.93;102983.44;5007953;28;20084;-58
2021/12/15 04:20:31;;;;;;;16.05;9.88;;;;;;;17.44;51.73;102979.00;5012087;28;20529;-58
2021/12/15 04:22:58;;;;;;;13.70;9.60;;;;;;;17.44;51.60;102984.38;5005440;28;20149;-57
2021/12/15 04:25:29;;;;;;;14.60;10.35;;;;;;;17.44;51.65;102983.50;5004781;28;20129;-59
2021/12/15 04:28:03;;;;;;;12.73;9.48;;;;;;;17.45;51.97;102985.25;5007019;28;20056;-58
2021/12/15 04:30:34;;;;;;;13.45;9.73;;;;;;;17.44;51.71;102986.19;5004936;28;20046;-58
2021/12/15 04:33:07;;;;;;;14.57;9.55;;;;;;;17.43;51.76;102982.66;5006523;28;20103;-57
2021/12/15 04:35:35;;;;;;;12.60;9.48;;;;;;;17.44;51.92;102989.72;5005664;28;20138;-58
2021/12/15 04:38:03;;;;;;;13.88;10.00;;;;;;;17.44;51.87;102999.59;5005827;28;20058;-58
2021/12/15 04:40:30;;;;;;;16.27;9.85;;;;;;;17.44;51.62;102996.91;5010773;28;20057;-58
2021/12/15 04:42:58;;;;;;;12.40;9.55;;;;;;;17.43;51.49;103001.41;5007821;28;20095;-58
2021/12/15 04:45:25;;;;;;;12.45;9.30;;;;;;;17.43;51.49;102997.88;5006844;28;20349;-58
2021/12/15 04:47:52;;;;;;;12.60;8.63;;;;;;;17.43;51.83;102995.19;5006021;28;20128;-58
2021/12/15 04:50:25;;;;;;;12.68;9.13;;;;;;;17.44;51.38;103004.97;5008412;28;20049;-58
2021/12/15 04:52:52;;;;;;;13.20;9.27;;;;;;;17.44;51.71;102992.41;5003736;28;20418;-57
2021/12/15 04:55:21;;;;;;;13.50;9.30;;;;;;;17.43;52.04;103008.59;5006379;28;20133;-58
2021/12/15 04:57:48;;;;;;;12.07;9.07;;;;;;;17.43;51.32;103000.56;5005108;28;20046;-58
2021/12/15 05:00:21;;;;;;;13.88;9.00;;;;;;;17.43;51.43;103003.25;5007014;28;20042;-58
2021/12/15 05:02:50;;;;;;;12.68;9.10;;;;;;;17.43;51.90;103003.25;5009615;28;20049;-59
2021/12/15 05:05:16;;;;;;;13.70;9.07;;;;;;;17.43;51.81;103011.28;5005439;28;20042;-58
2021/12/15 05:07:43;;;;;;;16.35;9.20;;;;;;;17.43;51.90;103005.94;5005545;28;20058;-57
2021/12/15 05:10:11;;;;;;;13.43;9.40;;;;;;;17.44;51.34;103007.63;5005623;28;20045;-58
2021/12/15 05:12:38;;;;;;;17.50;8.63;;;;;;;17.43;52.21;103011.28;5007376;28;20042;-58
2021/12/15 05:15:06;;;;;;;11.52;8.57;;;;;;;17.42;51.29;103005.06;5011182;28;20054;-58
2021/12/15 05:17:33;;;;;;;15.50;9.45;;;;;;;17.42;51.83;103005.06;5012731;28;20089;-59
2021/12/15 05:20:03;;;;;;;14.05;8.82;;;;;;;17.43;51.52;103005.94;5011734;28;20097;-59
2021/12/15 05:22:32;;;;;;;15.23;8.45;;;;;;;17.43;51.52;103012.16;5008875;28;20047;-58
2021/12/15 05:24:58;;;;;;;14.60;9.93;;;;;;;17.40;51.78;103001.59;5008426;28;20057;-59
2021/12/15 05:27:25;;;;;;;17.00;10.90;;;;;;;17.41;52.03;103003.34;5006881;28;20053;-59
2021/12/15 05:29:52;;;;;;;15.98;9.77;;;;;;;17.40;52.09;103004.28;5015257;28;20053;-58
2021/12/15 05:32:22;;;;;;;16.98;11.23;;;;;;;17.41;51.76;103015.91;5012594;28;20043;-59
2021/12/15 05:34:52;;;;;;;16.23;9.80;;;;;;;17.40;51.79;103016.84;5008463;28;20425;-59
2021/12/15 05:37:22;;;;;;;17.65;9.73;;;;;;;17.40;51.69;103008.78;5008292;28;20049;-59
2021/12/15 05:39:52;;;;;;;17.83;10.27;;;;;;;17.40;51.94;103012.34;5011741;28;20716;-58
2021/12/15 05:42:21;;;;;;;17.40;10.98;;;;;;;17.39;51.60;103007.06;5008157;28;20048;-59
2021/12/15 05:44:49;;;;;;;16.52;10.65;;;;;;;17.39;51.97;103009.75;5009081;28;20129;-59
2021/12/15 05:47:16;;;;;;;16.27;10.55;;;;;;;17.38;51.37;103013.41;5008250;28;20054;-59
2021/12/15 05:49:43;;;;;;;16.92;10.55;;;;;;;17.38;51.62;103010.72;5008447;28;20434;-59
2021/12/15 05:52:10;;;;;;;20.88;12.27;;;;;;;17.37;51.95;103007.19;5003491;28;20396;-59
2021/12/15 05:54:37;;;;;;;16.10;10.13;;;;;;;17.37;52.08;103007.19;5008310;28;20125;-59
2021/12/15 05:57:05;;;;;;;16.50;10.73;;;;;;;17.37;51.74;103012.56;5005976;28;20054;-59
2021/12/15 05:59:31;;;;;;;17.15;10.82;;;;;;;17.37;51.75;103023.28;5004964;28;20488;-59
2021/12/15 06:01:59;;;;;;;17.85;9.55;;;;;;;17.37;51.61;103017.91;5004468;28;20154;-59
2021/12/15 06:04:25;;;;;;;17.45;11.15;;;;;;;17.36;51.64;103021.53;5006876;28;20046;-59
2021/12/15 06:06:52;;;;;;;19.98;10.98;;;;;;;17.38;51.74;103024.13;5008239;28;20045;-59
2021/12/15 06:09:18;;;;;;;16.35;10.90;;;;;;;17.37;51.67;103022.41;5007834;28;20054;-59
2021/12/15 06:11:51;;;;;;;16.35;9.63;;;;;;;17.37;51.99;103028.63;5007182;28;20053;-59
2021/12/15 06:14:23;;;;;;;18.00;11.77;;;;;;;17.36;51.89;103023.34;5008108;28;20133;-59
2021/12/15 06:16:56;;;;;;;16.10;10.30;;;;;;;17.36;51.55;103018.00;5007235;28;20054;-58
2021/12/15 06:19:23;;;;;;;18.63;11.52;;;;;;;17.36;51.62;103021.53;5005840;28;20049;-59
2021/12/15 06:21:49;;;;;;;17.77;11.40;;;;;;;17.34;51.64;103023.44;5009971;28;20041;-60
2021/12/15 06:24:16;;;;;;;17.45;10.70;;;;;;;17.34;51.83;103027.97;5006879;28;20050;-59
2021/12/15 06:26:42;;;;;;;18.73;11.48;;;;;;;17.34;51.44;103027.97;5007391;28;20125;-59
2021/12/15 06:29:09;;;;;;;18.77;11.02;;;;;;;17.34;51.93;103033.31;5006949;28;20052;-59
2021/12/15 06:31:38;;;;;;;17.85;11.15;;;;;;;17.34;51.68;103030.63;5006056;28;20438;-60
2021/12/15 06:34:05;;;;;;;19.15;11.55;;;;;;;17.34;52.15;103033.31;5002687;28;20046;-59
2021/12/15 06:36:33;;;;;;;21.80;13.00;;;;;;;17.33;52.22;103035.13;5008395;28;20061;-59
2021/12/15 06:39:01;;;;;;;18.45;11.45;;;;;;;17.33;52.17;103037.81;5007419;28;20049;-59
2021/12/15 06:41:28;;;;;;;18.00;10.77;;;;;;;17.32;52.24;103030.72;5001092;28;20057;-59
2021/12/15 06:43:57;;;;;;;17.33;10.98;;;;;;;17.33;52.07;103031.59;5006773;28;20041;-59
2021/12/15 07:00:13;;;;;;;18.45;11.50;;;;;;;17.31;51.98;103052.25;5005033;28;20062;-59
2021/12/15 07:02:40;;;;;;;17.40;10.52;;;;;;;17.32;51.44;103060.19;5005580;28;20497;-60
2021/12/15 07:05:12;;;;;;;18.30;11.13;;;;;;;17.30;51.68;103054.09;5008579;28;20070;-59
2021/12/15 07:07:40;;;;;;;17.98;10.38;;;;;;;17.31;51.91;103057.63;5007522;28;20179;-59
2021/12/15 07:10:09;;;;;;;18.27;10.85;;;;;;;17.31;51.74;103061.16;5005519;28;20133;-59
2021/12/15 07:12:36;;;;;;;17.98;10.50;;;;;;;17.29;52.07;103055.06;5001394;28;20046;-59
2021/12/15 07:15:04;;;;;;;18.23;10.57;;;;;;;17.31;51.36;103063.00;5009879;28;20137;-59
2021/12/15 07:17:31;;;;;;;17.35;10.55;;;;;;;17.31;51.76;103060.31;5003714;28;20081;-59
2021/12/15 07:22:32;;;;;;;17.15;10.40;;;;;;;17.31;51.62;103060.31;5005438;28;20178;-57
2021/12/15 07:25:01;;;;;;;21.13;11.15;;;;;;;17.30;52.23;103055.91;5006246;28;20050;-58
2021/12/15 07:27:27;;;;;;;16.92;10.25;;;;;;;17.30;51.71;103072.84;5003826;28;20057;-57
2021/12/15 07:29:54;;;;;;;19.15;10.93;;;;;;;17.30;51.72;103064.81;5007115;28;20074;-58
2021/12/15 07:32:20;;;;;;;17.92;10.25;;;;;;;17.30;52.08;103058.59;5003861;28;20509;-58
2021/12/15 07:34:47;;;;;;;18.52;11.02;;;;;;;17.29;51.59;103055.06;5005929;28;20445;-58
2021/12/15 07:37:13;;;;;;;19.67;11.00;;;;;;;17.32;52.06;103062.88;5003126;28;20060;-58
2021/12/15 07:39:47;;;;;;;18.35;10.40;;;;;;;17.28;52.04;103066.69;5005940;28;20050;-58
2021/12/15 07:42:15;;;;;;;19.45;10.70;;;;;;;17.29;51.90;103063.09;5005965;28;20350;-58
2021/12/15 07:44:41;;;;;;;16.95;10.38;;;;;;;17.29;51.74;103071.13;5003859;28;20060;-58
2021/12/15 07:47:08;;;;;;;16.35;9.80;;;;;;;17.27;51.59;103071.22;5001629;28;20046;-58
2021/12/15 07:49:35;;;;;;;17.45;10.35;;;;;;;17.28;51.62;103078.28;5005184;28;20046;-59
2021/12/15 07:52:05;;;;;;;18.65;10.63;;;;;;;17.29;52.05;103071.13;5006401;28;20417;-58
2021/12/15 07:54:35;;;;;;;16.83;10.43;;;;;;;17.28;51.64;103077.44;5004881;28;20158;-58
2021/12/15 07:57:09;;;;;;;21.30;11.32;;;;;;;17.27;51.60;103081.06;5005096;28;20071;-58
2021/12/15 07:59:36;;;;;;;18.33;11.52;;;;;;;17.26;51.56;103072.16;5004447;28;20050;-58
2021/12/15 08:02:04;;;;;;;16.17;10.10;;;;;;;17.28;51.69;103078.28;5011870;28;20050;-58
2021/12/15 08:04:31;;;;;;;18.27;10.57;;;;;;;17.27;52.30;103076.56;5003510;28;20337;-58
2021/12/15 08:06:58;;;;;;;18.38;10.10;;;;;;;17.27;51.57;103076.56;5003637;28;20125;-58
2021/12/15 08:09:24;;;;;;;18.73;11.70;;;;;;;17.27;51.63;103089.09;5006952;28;20397;-58
2021/12/15 08:11:51;;;;;;;18.63;10.90;;;;;;;17.28;51.76;103085.47;5003003;28;20052;-58
2021/12/15 08:14:18;;;;;;;20.50;11.30;;;;;;;17.27;51.92;103086.44;5005806;28;20133;-58
2021/12/15 08:16:44;;;;;;;21.58;11.98;;;;;;;17.26;51.74;103082.91;5005081;28;20132;-59
2021/12/15 08:19:15;;;;;;;19.75;11.35;;;;;;;17.26;51.27;103082.91;5006916;28;20133;-59
2021/12/15 08:21:42;;;;;;;19.70;11.57;;;;;;;17.27;52.39;103091.78;5006679;28;20108;-58
2021/12/15 08:24:09;;;;;;;17.50;10.52;;;;;;;17.27;52.17;103100.69;5002923;28;20049;-58
2021/12/15 08:26:36;;;;;;;18.88;10.98;;;;;;;17.26;52.26;103090.94;5002812;28;20149;-58
2021/12/15 08:29:04;;;;;;;17.13;10.75;;;;;;;17.25;51.90;103099.94;5008332;28;20456;-59
2021/12/15 08:31:30;;;;;;;17.33;11.07;;;;;;;17.26;51.82;103101.66;5007357;28;20064;-58
2021/12/15 08:33:57;;;;;;;20.90;10.98;;;;;;;17.26;51.45;103096.28;5009666;28;20042;-59
2021/12/15 08:36:24;;;;;;;16.52;10.05;;;;;;;17.26;51.63;103092.75;5005332;28;20141;-59
2021/12/15 08:38:52;;;;;;;18.15;10.52;;;;;;;17.26;52.17;103100.78;4998838;28;20042;-59
2021/12/15 08:41:22;;;;;;;17.83;11.40;;;;;;;17.25;51.28;103099.94;5009997;28;20149;-59
2021/12/15 08:43:49;;;;;;;16.40;9.63;;;;;;;17.26;51.28;103101.66;5008678;28;20065;-59
2021/12/15 08:46:20;;;;;;;18.35;10.90;;;;;;;17.26;51.93;103104.34;5004627;28;20410;-58
2021/12/15 08:48:48;;;;;;;17.10;10.55;;;;;;;17.24;51.60;103119.63;5009650;28;20077;-59
2021/12/15 08:51:19;;;;;;;18.08;10.88;;;;;;;17.25;51.42;103110.66;5010769;28;20054;-59
2021/12/15 08:53:46;;;;;;;16.42;10.20;;;;;;;17.26;51.74;103101.66;5007146;28;20065;-59
2021/12/15 08:56:13;;;;;;;17.75;10.30;;;;;;;17.26;51.79;103092.75;5009285;28;20060;-58
2021/12/15 08:58:40;;;;;;;18.67;11.00;;;;;;;17.26;51.63;103095.44;5005031;28;20457;-59
2021/12/15 09:01:07;;;;;;;17.48;10.43;;;;;;;17.26;52.18;103103.47;5007488;28;20061;-59
2021/12/15 09:03:35;;;;;;;16.75;10.35;;;;;;;17.26;51.36;103101.66;5006135;28;20131;-59
2021/12/15 09:06:03;;;;;;;16.45;10.48;;;;;;;17.26;51.48;103103.47;5001801;28;20136;-58
2021/12/15 09:08:30;;;;;;;17.80;9.90;;;;;;;17.25;51.47;103099.94;5007683;28;20056;-59
2021/12/15 09:10:59;;;;;;;16.00;10.23;;;;;;;17.27;52.29;103110.56;5008014;28;20124;-59
2021/12/15 09:13:30;;;;;;;19.85;10.98;;;;;;;17.26;51.46;103112.38;5007265;28;20476;-58
2021/12/15 09:16:00;;;;;;;17.40;10.35;;;;;;;17.25;51.49;103121.38;5008813;28;20112;-59
2021/12/15 09:18:27;;;;;;;15.60;10.32;;;;;;;17.25;52.02;103118.69;5004956;28;20049;-58
2021/12/15 09:20:54;;;;;;;18.10;10.98;;;;;;;17.27;52.07;103124.81;5007798;28;20053;-59
2021/12/15 09:23:20;;;;;;;16.20;10.20;;;;;;;17.27;51.67;103116.78;5010374;28;20054;-58
2021/12/15 09:25:48;;;;;;;15.73;10.27;;;;;;;17.26;51.30;103123.09;5006151;28;20129;-58
2021/12/15 09:28:15;;;;;;;16.38;10.38;;;;;;;17.26;51.95;103128.47;5014563;28;20085;-58
2021/12/15 09:30:46;;;;;;;15.90;9.50;;;;;;;17.27;51.75;103132.84;5006849;28;20442;-57
2021/12/15 09:33:21;;;;;;;16.13;9.98;;;;;;;17.27;52.20;103129.31;5010436;28;20086;-57
2021/12/15 09:35:47;;;;;;;16.83;10.18;;;;;;;17.27;51.55;103132.84;5009630;28;20128;-58
2021/12/15 09:38:17;;;;;;;14.75;9.32;;;;;;;17.27;52.11;103132.84;5008639;28;20163;-57
2021/12/15 09:40:44;;;;;;;14.85;9.35;;;;;;;17.27;51.92;103135.53;5006397;28;20490;-58
2021/12/15 09:43:12;;;;;;;17.20;10.18;;;;;;;17.28;51.37;103134.56;5012441;28;20549;-58
2021/12/15 09:57:03;;;;;;;17.65;9.07;;;;;;;17.31;51.26;103154.97;5007820;28;20053;-58
2021/12/15 10:02:27;;;;;;;14.30;9.27;;;;;;;17.31;51.60;103151.44;5005415;28;20053;-58
2021/12/15 10:19:29;;;;;;;14.38;9.05;;;;;;;17.33;51.45;103161.13;5006641;28;20378;-58
2021/12/15 10:21:56;;;;;;;12.55;8.18;;;;;;;17.33;51.67;103161.13;5010217;28;20101;-58
2021/12/15 10:24:33;;;;;;;13.57;8.55;;;;;;;17.33;51.41;103157.59;5003211;28;20073;-57
2021/12/15 10:27:04;;;;;;;15.60;9.07;;;;;;;17.34;51.70;103151.25;5007450;28;20525;-58
2021/12/15 10:29:31;;;;;;;13.25;8.63;;;;;;;17.34;51.63;103156.63;5006896;28;20053;-58
2021/12/15 10:32:03;;;;;;;15.20;8.60;;;;;;;17.34;52.02;103156.63;5003705;28;20050;-58
2021/12/15 10:34:30;;;;;;;16.87;9.00;;;;;;;17.34;51.80;103160.16;5009766;28;20121;-58
2021/12/15 10:37:03;;;;;;;12.93;8.07;;;;;;;17.35;51.94;103159.19;5005464;28;20336;-58
2021/12/15 10:39:30;;;;;;;13.13;8.10;;;;;;;17.35;51.61;103166.38;5008543;28;20045;-57
2021/12/15 10:41:56;;;;;;;13.93;8.75;;;;;;;17.35;51.36;103169.91;5000810;28;20430;-58
2021/12/15 10:44:26;;;;;;;16.40;9.45;;;;;;;17.35;51.71;103172.59;5008814;28;20054;-58
2021/12/15 10:46:55;;;;;;;12.10;8.05;;;;;;;17.37;51.79;103172.53;5007017;28;20054;-58
2021/12/15 10:49:30;;;;;;;13.15;8.55;;;;;;;17.37;51.82;103161.81;5007941;28;20054;-58
2021/12/15 10:52:10;;;;;;;14.57;8.77;;;;;;;17.38;51.88;103160.84;5008184;28;20060;-57
2021/12/15 10:54:44;;;;;;;12.23;8.10;;;;;;;17.39;52.04;103162.56;5003358;28;20528;-58
2021/12/15 10:57:14;;;;;;;13.10;8.20;;;;;;;17.40;51.66;103164.28;4999811;28;20120;-58
2021/12/15 10:59:50;;;;;;;11.75;8.15;;;;;;;17.40;51.78;103175.00;5003528;28;20145;-58
2021/12/15 11:02:36;;;;;;;;;;;;;;;17.42;51.70;103165.06;5009047;28;20448;-59
2021/12/15 11:05:12;;;;;;;16.13;9.20;;;;;;;17.50;51.50;103173.50;5005204;28;19925;-58
2021/12/15 11:07:43;;;;;;;15.07;9.57;;;;;;;17.54;51.61;103164.31;5006573;28;20129;-58
2021/12/15 11:10:31;;;;;;;16.40;9.55;;;;;;;17.62;51.59;103164.72;5004512;28;20109;-58
2021/12/15 11:13:08;;;;;;;15.93;9.80;;;;;;;17.71;51.58;103161.44;5006052;28;20050;-58
2021/12/15 11:15:45;;;;;;;15.15;10.15;;;;;;;17.82;51.75;103157.28;4999890;28;20038;-58
2021/12/15 11:18:16;;;;;;;13.85;8.55;;;;;;;17.91;50.95;103162.91;5007899;28;20066;-58
2021/12/15 11:20:48;;;;;;;15.23;8.57;;;;;;;18.02;50.95;103164.09;5006023;28;20050;-58
2021/12/15 11:23:19;;;;;;;15.10;8.88;;;;;;;18.11;51.25;103161.66;5003891;28;20052;-58
2021/12/15 11:25:50;;;;;;;14.82;9.13;;;;;;;18.19;50.91;103169.22;5004226;28;20442;-58
2021/12/15 11:28:44;;;;;;;14.20;8.85;;;;;;;18.28;51.07;103165.94;5002809;28;20342;-58
2021/12/15 11:31:32;;;;;;;15.93;9.90;;;;;;;18.37;51.01;103162.69;5002068;28;20399;-58
2021/12/15 11:34:02;;;;;;;14.23;8.73;;;;;;;18.45;50.61;103164.84;5007287;28;20042;-58
2021/12/15 11:36:32;;;;;;;13.80;9.05;;;;;;;18.52;50.75;103176.94;5004647;28;20058;-58
2021/12/15 11:39:04;;;;;;;19.35;10.32;;;;;;;18.58;50.79;103173.84;5001965;28;20058;-58
2021/12/15 11:41:37;;;;;;;14.98;9.43;;;;;;;18.64;50.36;103168.06;5006054;28;20050;-58
2021/12/15 11:44:07;;;;;;;15.43;9.70;;;;;;;18.70;50.40;103162.34;5004648;28;20075;-59
2021/12/15 11:46:43;;;;;;;16.55;10.43;;;;;;;18.76;50.03;103165.56;5003697;28;20735;-58
2021/12/15 11:49:14;;;;;;;16.73;10.38;;;;;;;18.81;50.12;103160.75;5004002;28;20315;-59
2021/12/15 11:51:51;;;;;;;20.88;11.80;;;;;;;18.86;50.33;103155.94;5002240;28;20137;-59
2021/12/15 11:54:29;;;;;;;18.48;10.35;;;;;;;18.91;49.94;103156.50;5004952;28;20134;-59
2021/12/15 11:57:02;;;;;;;24.40;13.52;;;;;;;18.95;50.18;103160.69;5004264;28;20064;-58
2021/12/15 11:59:29;;;;;;;;;;;;;;;18.99;50.05;103154.16;5005690;28;20140;-59
2021/12/15 12:02:23;;;;;;;22.42;12.98;;;;;;;19.05;49.89;103153.72;5003889;28;20264;-58
2021/12/15 12:04:56;;;;;;;18.17;11.73;;;;;;;19.09;50.32;103151.69;5002546;28;20034;-58
2021/12/15 12:07:32;;;;;;;21.42;13.13;;;;;;;19.11;50.08;103150.63;5002225;28;20137;-59
2021/12/15 12:09:59;;;;;;;22.05;13.15;;;;;;;19.15;50.03;103162.03;5005032;28;20052;-58
2021/12/15 12:12:31;;;;;;;23.17;14.43;;;;;;;19.18;49.50;103159.16;5005440;28;20456;-58
2021/12/15 12:14:58;;;;;;;24.83;14.98;;;;;;;19.21;49.74;103150.84;5003631;28;20042;-58
2021/12/15 12:17:29;;;;;;;21.70;13.27;;;;;;;19.23;49.72;103155.16;5005181;28;20136;-59
2021/12/15 12:20:05;;;;;;;25.25;13.50;;;;;;;19.27;50.01;103146.91;5005171;28;20169;-60
2021/12/15 12:22:33;;;;;;;21.85;13.63;;;;;;;19.30;49.39;103146.69;5003373;28;20586;-58
2021/12/15 12:25:04;;;;;;;20.92;12.77;;;;;;;19.33;49.73;103149.16;5005609;28;20073;-58
2021/12/15 12:27:31;;;;;;;24.60;14.07;;;;;;;19.36;49.51;103143.56;5003263;28;20494;-59
2021/12/15 12:30:00;;;;;;;20.15;12.63;;;;;;;19.37;49.33;103138.06;5007165;28;20062;-58
2021/12/15 12:32:28;;;;;;;20.92;12.60;;;;;;;19.40;49.71;103143.25;5003949;28;20140;-59
2021/12/15 12:34:57;;;;;;;25.33;14.60;;;;;;;19.43;49.86;103139.47;5001057;28;20042;-58
2021/12/15 12:37:23;;;;;;;24.70;13.50;;;;;;;19.44;49.89;103142.06;5000651;28;20145;-58
2021/12/15 12:39:56;;;;;;;21.02;13.48;;;;;;;19.47;49.19;103139.16;5003140;28;20050;-58